Oakland County International Airport
KPTK : now visible

Airfield :











YOU CAN JOIN US ON...

 
LOGIN :

Register | Disclaimer

   EN    FR    IT 

 









Legend :    VFR   Marginal VFR   IFR   Intensive IFR   Very Intensive IFR
Visi :
Ceiling :
>= 8 km
>= 3000ft
5 to 8 km
1000 to 3000 ft
1500m to 5 km
500 to 1000 ft
800 to 1500m
200 to 500 ft
< 800m
< 200 ft
Symbols :   Thunderstorms  Fog  Heavy snow  Heavy precipitations  Wind > 20 kt






- Airport Elevation : 980 ft


KPTK - Oakland County International

CURRENT METAR :
  • 090353Z 12005KT 10SM SCT075 BKN240 08/01 A3004 RMK AO2 SLP175 LAST T00780006

EXPIRED METARs :
  • 090253Z 12004KT 10SM BKN075 BKN220 08/01 A3005 RMK AO2 SLP182 T00830006 53005
  • 090153Z 00000KT 10SM BKN075 BKN220 08/00 A3005 RMK AO2 SLP182 T00780000

TAF KPTK
Valid from the 09 at 00:00 until the 10 at 00:00 UTC


082335Z 0900/0924 VRB03KT P6SM SCT080 BKN250
FM091000 VRB03KT P6SM OVC100
FM091500 13005KT 6SM -SHRA OVC040
TEMPO 0916/0919 4SM RA OVC025
FM092100 06010KT P6SM BKN040 OVC080
KZOB FIR / North America



MET'MAP, your aeronautical weather chart ! - Copyright ORBIFLY December 2007 - Disclaimer

ORBIFLY MET'MAP TEAM :

Programming & Development : Alexandra Zaïnal
Concept & original design : Baudouin d'Aumeries
Assistance for programming : Marc-Olivier Méhu
Technical & hardware support : Manuel Goepfert

Contact : metmap@orbifly.com




SOURCES & CREDITS :

   NOAA       Earth
Advisory